sensor_id;sensor_type;location;lat;lon;timestamp;P1;durP1;ratioP1;P2;durP2;ratioP2
12429;SDS011;6279;42.192;24.326;2023-03-12T09:46:53;4.00;;;2.90;;
12429;SDS011;6279;42.192;24.326;2023-03-12T09:52:18;2.27;;;1.40;;
12429;SDS011;6279;42.192;24.326;2023-03-12T09:55:10;5.00;;;3.07;;
12429;SDS011;6279;42.192;24.326;2023-03-12T09:57:44;6.50;;;3.90;;
12429;SDS011;6279;42.192;24.326;2023-03-12T10:00:12;6.80;;;2.83;;
12429;SDS011;6279;42.192;24.326;2023-03-12T10:08:43;4.73;;;2.17;;
12429;SDS011;6279;42.192;24.326;2023-03-12T10:11:28;3.93;;;1.80;;
12429;SDS011;6279;42.192;24.326;2023-03-12T10:22:10;4.43;;;2.53;;
12429;SDS011;6279;42.192;24.326;2023-03-12T10:27:17;9.80;;;5.10;;
12429;SDS011;6279;42.192;24.326;2023-03-12T10:29:46;5.17;;;2.40;;
12429;SDS011;6279;42.192;24.326;2023-03-12T10:35:27;13.10;;;6.13;;
12429;SDS011;6279;42.192;24.326;2023-03-12T10:37:57;6.90;;;3.83;;
12429;SDS011;6279;42.192;24.326;2023-03-12T10:40:28;8.47;;;4.63;;
12429;SDS011;6279;42.192;24.326;2023-03-12T10:42:55;7.30;;;4.43;;
12429;SDS011;6279;42.192;24.326;2023-03-12T10:45:42;4.53;;;2.30;;
12429;SDS011;6279;42.192;24.326;2023-03-12T10:48:20;6.37;;;3.83;;
12429;SDS011;6279;42.192;24.326;2023-03-12T10:51:04;8.07;;;4.93;;
12429;SDS011;6279;42.192;24.326;2023-03-12T10:53:32;2.03;;;1.70;;
12429;SDS011;6279;42.192;24.326;2023-03-12T10:56:34;3.67;;;3.03;;
12429;SDS011;6279;42.192;24.326;2023-03-12T10:58:52;7.10;;;3.10;;
12429;SDS011;6279;42.192;24.326;2023-03-12T11:01:22;3.30;;;2.10;;
12429;SDS011;6279;42.192;24.326;2023-03-12T11:03:53;4.43;;;2.70;;
12429;SDS011;6279;42.192;24.326;2023-03-12T11:06:33;5.03;;;3.10;;
12429;SDS011;6279;42.192;24.326;2023-03-12T11:09:04;5.33;;;2.60;;
12429;SDS011;6279;42.192;24.326;2023-03-12T11:11:31;5.37;;;2.00;;
12429;SDS011;6279;42.192;24.326;2023-03-12T11:14:05;2.07;;;1.70;;
12429;SDS011;6279;42.192;24.326;2023-03-12T11:16:32;7.03;;;3.20;;
12429;SDS011;6279;42.192;24.326;2023-03-12T11:19:03;5.47;;;3.33;;
12429;SDS011;6279;42.192;24.326;2023-03-12T11:21:34;4.07;;;2.50;;
12429;SDS011;6279;42.192;24.326;2023-03-12T11:26:41;2.73;;;2.13;;
12429;SDS011;6279;42.192;24.326;2023-03-12T11:31:51;3.67;;;2.53;;
12429;SDS011;6279;42.192;24.326;2023-03-12T11:34:27;4.60;;;3.00;;
12429;SDS011;6279;42.192;24.326;2023-03-12T11:47:21;2.83;;;2.40;;
12429;SDS011;6279;42.192;24.326;2023-03-12T12:00:47;4.17;;;1.70;;
12429;SDS011;6279;42.192;24.326;2023-03-12T12:11:42;3.63;;;2.60;;
12429;SDS011;6279;42.192;24.326;2023-03-12T12:25:39;4.80;;;2.10;;
12429;SDS011;6279;42.192;24.326;2023-03-12T12:31:29;3.40;;;2.10;;
12429;SDS011;6279;42.192;24.326;2023-03-12T12:36:38;3.70;;;2.20;;
12429;SDS011;6279;42.192;24.326;2023-03-12T12:39:08;2.17;;;1.93;;
12429;SDS011;6279;42.192;24.326;2023-03-12T12:41:39;3.90;;;2.23;;
12429;SDS011;6279;42.192;24.326;2023-03-12T12:44:12;4.50;;;2.77;;
12429;SDS011;6279;42.192;24.326;2023-03-12T12:46:46;3.07;;;2.00;;
12429;SDS011;6279;42.192;24.326;2023-03-12T12:49:22;4.03;;;2.13;;
12429;SDS011;6279;42.192;24.326;2023-03-12T12:51:54;3.10;;;1.73;;
12429;SDS011;6279;42.192;24.326;2023-03-12T13:02:01;2.07;;;1.70;;
12429;SDS011;6279;42.192;24.326;2023-03-12T13:04:32;3.27;;;1.57;;
12429;SDS011;6279;42.192;24.326;2023-03-12T13:09:41;4.10;;;1.47;;
12429;SDS011;6279;42.192;24.326;2023-03-12T13:12:24;2.20;;;1.80;;
12429;SDS011;6279;42.192;24.326;2023-03-12T13:14:54;2.63;;;1.80;;
12429;SDS011;6279;42.192;24.326;2023-03-12T13:20:12;1.83;;;1.43;;
12429;SDS011;6279;42.192;24.326;2023-03-12T13:23:16;2.67;;;1.43;;
12429;SDS011;6279;42.192;24.326;2023-03-12T13:32:01;3.20;;;1.63;;
12429;SDS011;6279;42.192;24.326;2023-03-12T13:36:53;1.93;;;1.47;;
12429;SDS011;6279;42.192;24.326;2023-03-12T13:41:59;3.70;;;1.60;;
12429;SDS011;6279;42.192;24.326;2023-03-12T13:44:45;2.33;;;1.87;;
12429;SDS011;6279;42.192;24.326;2023-03-12T13:49:53;2.30;;;1.70;;
12429;SDS011;6279;42.192;24.326;2023-03-12T13:52:20;4.00;;;1.77;;
12429;SDS011;6279;42.192;24.326;2023-03-12T13:57:50;1.60;;;1.47;;
12429;SDS011;6279;42.192;24.326;2023-03-12T14:00:29;4.43;;;2.30;;
12429;SDS011;6279;42.192;24.326;2023-03-12T14:03:00;2.60;;;1.63;;
12429;SDS011;6279;42.192;24.326;2023-03-12T14:05:31;4.33;;;1.70;;
12429;SDS011;6279;42.192;24.326;2023-03-12T14:18:43;2.50;;;1.53;;
12429;SDS011;6279;42.192;24.326;2023-03-12T14:21:12;3.30;;;2.30;;
12429;SDS011;6279;42.192;24.326;2023-03-12T14:23:43;2.40;;;1.70;;
12429;SDS011;6279;42.192;24.326;2023-03-12T14:26:24;2.80;;;2.30;;
12429;SDS011;6279;42.192;24.326;2023-03-12T14:31:55;3.63;;;2.50;;
12429;SDS011;6279;42.192;24.326;2023-03-12T14:34:25;16.43;;;7.77;;
12429;SDS011;6279;42.192;24.326;2023-03-12T14:36:56;3.63;;;1.97;;
12429;SDS011;6279;42.192;24.326;2023-03-12T14:39:38;4.03;;;2.43;;
12429;SDS011;6279;42.192;24.326;2023-03-12T14:42:08;1.77;;;1.30;;
12429;SDS011;6279;42.192;24.326;2023-03-12T14:44:35;2.33;;;1.60;;
12429;SDS011;6279;42.192;24.326;2023-03-12T14:47:03;1.60;;;1.23;;
12429;SDS011;6279;42.192;24.326;2023-03-12T14:49:40;1.63;;;1.37;;
12429;SDS011;6279;42.192;24.326;2023-03-12T14:52:12;1.70;;;1.23;;
12429;SDS011;6279;42.192;24.326;2023-03-12T14:54:39;1.70;;;1.37;;
12429;SDS011;6279;42.192;24.326;2023-03-12T14:57:18;1.20;;;1.10;;
12429;SDS011;6279;42.192;24.326;2023-03-12T14:59:50;1.60;;;1.20;;
12429;SDS011;6279;42.192;24.326;2023-03-12T15:02:18;1.80;;;1.50;;
12429;SDS011;6279;42.192;24.326;2023-03-12T15:04:44;3.23;;;1.33;;
12429;SDS011;6279;42.192;24.326;2023-03-12T15:07:11;2.47;;;1.60;;
12429;SDS011;6279;42.192;24.326;2023-03-12T15:09:40;3.57;;;1.70;;
12429;SDS011;6279;42.192;24.326;2023-03-12T15:18:06;2.93;;;2.40;;
12429;SDS011;6279;42.192;24.326;2023-03-12T15:20:52;2.37;;;1.90;;
12429;SDS011;6279;42.192;24.326;2023-03-12T15:23:20;2.07;;;1.73;;
12429;SDS011;6279;42.192;24.326;2023-03-12T15:25:47;4.00;;;1.70;;
12429;SDS011;6279;42.192;24.326;2023-03-12T15:28:31;2.20;;;1.80;;
12429;SDS011;6279;42.192;24.326;2023-03-12T15:33:59;1.93;;;1.50;;
12429;SDS011;6279;42.192;24.326;2023-03-12T15:36:29;2.57;;;1.60;;
12429;SDS011;6279;42.192;24.326;2023-03-12T15:39:00;2.50;;;1.60;;
12429;SDS011;6279;42.192;24.326;2023-03-12T15:41:42;2.10;;;1.70;;
12429;SDS011;6279;42.192;24.326;2023-03-12T15:44:19;2.90;;;2.13;;
12429;SDS011;6279;42.192;24.326;2023-03-12T15:46:47;2.07;;;1.70;;
12429;SDS011;6279;42.192;24.326;2023-03-12T15:49:23;5.30;;;3.40;;
12429;SDS011;6279;42.192;24.326;2023-03-12T15:57:25;6.57;;;3.23;;
12429;SDS011;6279;42.192;24.326;2023-03-12T16:02:59;9.17;;;4.00;;
12429;SDS011;6279;42.192;24.326;2023-03-12T16:05:31;6.80;;;3.20;;
12429;SDS011;6279;42.192;24.326;2023-03-12T16:08:05;7.63;;;3.87;;
12429;SDS011;6279;42.192;24.326;2023-03-12T16:10:34;5.13;;;2.90;;
12429;SDS011;6279;42.192;24.326;2023-03-12T16:13:01;5.10;;;3.53;;
12429;SDS011;6279;42.192;24.326;2023-03-12T16:15:33;8.67;;;5.20;;
12429;SDS011;6279;42.192;24.326;2023-03-12T16:18:01;8.27;;;5.07;;
12429;SDS011;6279;42.192;24.326;2023-03-12T16:20:27;8.80;;;5.87;;
12429;SDS011;6279;42.192;24.326;2023-03-12T16:22:53;4.40;;;3.27;;
12429;SDS011;6279;42.192;24.326;2023-03-12T16:25:18;7.37;;;3.87;;
12429;SDS011;6279;42.192;24.326;2023-03-12T16:27:45;6.27;;;4.30;;
12429;SDS011;6279;42.192;24.326;2023-03-12T16:30:18;6.87;;;4.10;;
12429;SDS011;6279;42.192;24.326;2023-03-12T16:32:47;6.20;;;4.80;;
12429;SDS011;6279;42.192;24.326;2023-03-12T16:35:13;6.10;;;4.73;;
12429;SDS011;6279;42.192;24.326;2023-03-12T16:37:41;3.20;;;2.57;;
12429;SDS011;6279;42.192;24.326;2023-03-12T16:40:07;6.20;;;4.30;;
12429;SDS011;6279;42.192;24.326;2023-03-12T16:42:33;3.80;;;2.80;;
12429;SDS011;6279;42.192;24.326;2023-03-12T16:44:59;3.43;;;2.70;;
12429;SDS011;6279;42.192;24.326;2023-03-12T16:47:25;3.70;;;2.70;;
12429;SDS011;6279;42.192;24.326;2023-03-12T16:49:51;2.67;;;1.93;;
12429;SDS011;6279;42.192;24.326;2023-03-12T16:52:17;2.87;;;2.37;;
12429;SDS011;6279;42.192;24.326;2023-03-12T16:54:47;3.40;;;2.37;;
12429;SDS011;6279;42.192;24.326;2023-03-12T16:57:15;3.40;;;2.43;;
12429;SDS011;6279;42.192;24.326;2023-03-12T16:59:47;3.70;;;2.87;;
12429;SDS011;6279;42.192;24.326;2023-03-12T17:02:14;3.73;;;2.60;;
12429;SDS011;6279;42.192;24.326;2023-03-12T17:04:41;3.77;;;2.47;;
12429;SDS011;6279;42.192;24.326;2023-03-12T17:07:07;4.07;;;3.03;;
12429;SDS011;6279;42.192;24.326;2023-03-12T17:09:32;4.07;;;2.50;;
12429;SDS011;6279;42.192;24.326;2023-03-12T17:11:58;3.80;;;2.37;;
12429;SDS011;6279;42.192;24.326;2023-03-12T17:14:24;4.53;;;2.93;;
12429;SDS011;6279;42.192;24.326;2023-03-12T17:16:53;4.23;;;3.10;;
12429;SDS011;6279;42.192;24.326;2023-03-12T17:19:18;3.20;;;2.40;;
12429;SDS011;6279;42.192;24.326;2023-03-12T17:21:44;4.70;;;2.80;;
12429;SDS011;6279;42.192;24.326;2023-03-12T17:24:10;5.73;;;2.90;;
12429;SDS011;6279;42.192;24.326;2023-03-12T17:26:37;9.80;;;6.70;;
12429;SDS011;6279;42.192;24.326;2023-03-12T17:29:03;4.53;;;3.17;;
12429;SDS011;6279;42.192;24.326;2023-03-12T17:31:28;10.47;;;6.10;;
12429;SDS011;6279;42.192;24.326;2023-03-12T17:33:54;8.40;;;5.33;;
12429;SDS011;6279;42.192;24.326;2023-03-12T17:36:19;7.47;;;4.40;;
12429;SDS011;6279;42.192;24.326;2023-03-12T17:38:45;5.23;;;3.00;;
12429;SDS011;6279;42.192;24.326;2023-03-12T17:41:10;8.03;;;3.80;;
12429;SDS011;6279;42.192;24.326;2023-03-12T17:43:38;8.00;;;4.70;;
12429;SDS011;6279;42.192;24.326;2023-03-12T17:46:07;5.17;;;3.40;;
12429;SDS011;6279;42.192;24.326;2023-03-12T17:48:33;14.87;;;9.20;;
12429;SDS011;6279;42.192;24.326;2023-03-12T17:51:03;9.67;;;5.67;;
12429;SDS011;6279;42.192;24.326;2023-03-12T17:53:34;9.00;;;4.63;;
12429;SDS011;6279;42.192;24.326;2023-03-12T17:55:59;7.83;;;4.43;;
12429;SDS011;6279;42.192;24.326;2023-03-12T17:58:25;11.83;;;5.80;;
12429;SDS011;6279;42.192;24.326;2023-03-12T18:00:50;7.60;;;5.27;;
12429;SDS011;6279;42.192;24.326;2023-03-12T18:03:16;9.03;;;5.57;;
12429;SDS011;6279;42.192;24.326;2023-03-12T18:05:41;12.73;;;7.57;;
12429;SDS011;6279;42.192;24.326;2023-03-12T18:08:07;20.80;;;10.47;;
12429;SDS011;6279;42.192;24.326;2023-03-12T18:10:33;10.73;;;6.97;;
12429;SDS011;6279;42.192;24.326;2023-03-12T18:12:59;9.87;;;5.87;;
12429;SDS011;6279;42.192;24.326;2023-03-12T18:15:25;12.23;;;7.90;;
12429;SDS011;6279;42.192;24.326;2023-03-12T18:17:50;13.53;;;7.90;;
12429;SDS011;6279;42.192;24.326;2023-03-12T18:20:20;8.17;;;5.13;;
12429;SDS011;6279;42.192;24.326;2023-03-12T18:22:46;6.30;;;3.70;;
12429;SDS011;6279;42.192;24.326;2023-03-12T18:25:11;6.77;;;4.27;;
12429;SDS011;6279;42.192;24.326;2023-03-12T18:27:37;8.03;;;4.20;;
12429;SDS011;6279;42.192;24.326;2023-03-12T18:30:02;6.87;;;4.37;;
12429;SDS011;6279;42.192;24.326;2023-03-12T18:32:29;5.57;;;3.87;;
12429;SDS011;6279;42.192;24.326;2023-03-12T18:34:55;5.80;;;3.60;;
12429;SDS011;6279;42.192;24.326;2023-03-12T18:37:20;5.87;;;3.23;;
12429;SDS011;6279;42.192;24.326;2023-03-12T18:39:46;5.23;;;3.07;;
12429;SDS011;6279;42.192;24.326;2023-03-12T18:42:12;5.50;;;2.97;;
12429;SDS011;6279;42.192;24.326;2023-03-12T18:44:37;12.50;;;5.33;;
12429;SDS011;6279;42.192;24.326;2023-03-12T18:47:03;15.77;;;7.10;;
12429;SDS011;6279;42.192;24.326;2023-03-12T18:49:28;19.13;;;8.77;;
12429;SDS011;6279;42.192;24.326;2023-03-12T18:51:54;20.77;;;9.53;;
12429;SDS011;6279;42.192;24.326;2023-03-12T18:54:20;14.70;;;7.10;;
12429;SDS011;6279;42.192;24.326;2023-03-12T18:57:00;6.40;;;4.13;;
12429;SDS011;6279;42.192;24.326;2023-03-12T19:02:32;7.03;;;4.53;;
12429;SDS011;6279;42.192;24.326;2023-03-12T19:05:05;4.90;;;3.70;;
12429;SDS011;6279;42.192;24.326;2023-03-12T19:08:20;10.73;;;6.20;;
12429;SDS011;6279;42.192;24.326;2023-03-12T19:15:10;6.17;;;3.17;;
12429;SDS011;6279;42.192;24.326;2023-03-12T19:17:35;5.57;;;4.10;;
12429;SDS011;6279;42.192;24.326;2023-03-12T19:20:01;7.50;;;5.30;;
12429;SDS011;6279;42.192;24.326;2023-03-12T19:22:29;8.27;;;6.00;;
12429;SDS011;6279;42.192;24.326;2023-03-12T19:24:55;6.80;;;4.67;;
12429;SDS011;6279;42.192;24.326;2023-03-12T19:27:20;5.83;;;3.53;;
12429;SDS011;6279;42.192;24.326;2023-03-12T19:29:46;7.87;;;3.47;;
12429;SDS011;6279;42.192;24.326;2023-03-12T19:32:11;4.90;;;3.70;;
12429;SDS011;6279;42.192;24.326;2023-03-12T19:34:36;5.70;;;3.83;;
12429;SDS011;6279;42.192;24.326;2023-03-12T19:37:02;6.53;;;4.63;;
12429;SDS011;6279;42.192;24.326;2023-03-12T19:39:27;6.50;;;4.80;;
12429;SDS011;6279;42.192;24.326;2023-03-12T19:41:52;8.57;;;5.17;;
12429;SDS011;6279;42.192;24.326;2023-03-12T19:44:18;5.90;;;4.10;;
12429;SDS011;6279;42.192;24.326;2023-03-12T19:46:43;8.13;;;5.37;;
12429;SDS011;6279;42.192;24.326;2023-03-12T19:49:09;7.30;;;4.83;;
12429;SDS011;6279;42.192;24.326;2023-03-12T19:51:34;7.80;;;4.93;;
12429;SDS011;6279;42.192;24.326;2023-03-12T19:54:00;8.37;;;5.00;;
12429;SDS011;6279;42.192;24.326;2023-03-12T19:56:25;6.27;;;4.53;;
12429;SDS011;6279;42.192;24.326;2023-03-12T19:58:51;8.73;;;4.53;;
12429;SDS011;6279;42.192;24.326;2023-03-12T20:01:16;7.27;;;4.57;;
12429;SDS011;6279;42.192;24.326;2023-03-12T20:03:43;6.87;;;4.00;;
12429;SDS011;6279;42.192;24.326;2023-03-12T20:06:09;6.73;;;4.20;;
12429;SDS011;6279;42.192;24.326;2023-03-12T20:08:36;4.90;;;3.73;;
12429;SDS011;6279;42.192;24.326;2023-03-12T20:11:05;4.67;;;3.40;;
12429;SDS011;6279;42.192;24.326;2023-03-12T20:13:33;4.97;;;3.40;;
12429;SDS011;6279;42.192;24.326;2023-03-12T20:16:02;4.97;;;3.77;;
12429;SDS011;6279;42.192;24.326;2023-03-12T20:18:33;7.50;;;4.50;;
12429;SDS011;6279;42.192;24.326;2023-03-12T20:21:02;11.50;;;5.70;;
12429;SDS011;6279;42.192;24.326;2023-03-12T20:23:28;12.90;;;6.17;;
12429;SDS011;6279;42.192;24.326;2023-03-12T20:25:55;7.57;;;4.80;;
12429;SDS011;6279;42.192;24.326;2023-03-12T20:28:20;4.33;;;3.70;;
12429;SDS011;6279;42.192;24.326;2023-03-12T20:30:45;5.67;;;3.10;;
12429;SDS011;6279;42.192;24.326;2023-03-12T20:33:12;3.93;;;3.00;;
12429;SDS011;6279;42.192;24.326;2023-03-12T20:35:37;3.37;;;2.53;;
12429;SDS011;6279;42.192;24.326;2023-03-12T20:38:03;4.23;;;3.17;;
12429;SDS011;6279;42.192;24.326;2023-03-12T20:40:29;4.67;;;3.00;;
12429;SDS011;6279;42.192;24.326;2023-03-12T20:42:54;5.50;;;3.60;;
12429;SDS011;6279;42.192;24.326;2023-03-12T20:45:20;3.43;;;2.43;;
12429;SDS011;6279;42.192;24.326;2023-03-12T20:47:45;3.80;;;2.97;;
12429;SDS011;6279;42.192;24.326;2023-03-12T20:50:11;3.27;;;2.50;;
12429;SDS011;6279;42.192;24.326;2023-03-12T20:52:36;4.20;;;3.00;;
12429;SDS011;6279;42.192;24.326;2023-03-12T20:55:02;8.37;;;3.40;;
12429;SDS011;6279;42.192;24.326;2023-03-12T20:57:28;4.70;;;3.20;;
12429;SDS011;6279;42.192;24.326;2023-03-12T20:59:53;4.73;;;3.07;;
12429;SDS011;6279;42.192;24.326;2023-03-12T21:02:18;2.80;;;2.33;;
12429;SDS011;6279;42.192;24.326;2023-03-12T21:04:44;5.07;;;2.93;;
12429;SDS011;6279;42.192;24.326;2023-03-12T21:07:09;4.30;;;2.70;;
12429;SDS011;6279;42.192;24.326;2023-03-12T21:09:35;3.60;;;2.70;;
12429;SDS011;6279;42.192;24.326;2023-03-12T21:12:03;4.83;;;3.43;;
12429;SDS011;6279;42.192;24.326;2023-03-12T21:14:28;3.90;;;3.20;;
12429;SDS011;6279;42.192;24.326;2023-03-12T21:16:54;7.40;;;3.67;;
12429;SDS011;6279;42.192;24.326;2023-03-12T21:19:22;7.23;;;4.13;;
12429;SDS011;6279;42.192;24.326;2023-03-12T21:21:48;6.43;;;4.63;;
12429;SDS011;6279;42.192;24.326;2023-03-12T21:24:13;4.13;;;3.10;;
12429;SDS011;6279;42.192;24.326;2023-03-12T21:26:39;3.27;;;2.60;;
12429;SDS011;6279;42.192;24.326;2023-03-12T21:29:04;2.97;;;2.27;;
12429;SDS011;6279;42.192;24.326;2023-03-12T21:31:29;3.63;;;2.50;;
12429;SDS011;6279;42.192;24.326;2023-03-12T21:33:58;5.40;;;3.43;;
12429;SDS011;6279;42.192;24.326;2023-03-12T21:36:24;5.27;;;2.77;;
12429;SDS011;6279;42.192;24.326;2023-03-12T21:38:50;4.13;;;2.87;;
12429;SDS011;6279;42.192;24.326;2023-03-12T21:41:24;3.40;;;2.63;;
12429;SDS011;6279;42.192;24.326;2023-03-12T21:43:49;3.93;;;2.70;;
12429;SDS011;6279;42.192;24.326;2023-03-12T21:46:16;4.03;;;3.03;;
12429;SDS011;6279;42.192;24.326;2023-03-12T21:48:43;4.07;;;3.20;;
12429;SDS011;6279;42.192;24.326;2023-03-12T21:51:11;2.50;;;2.30;;
12429;SDS011;6279;42.192;24.326;2023-03-12T21:53:38;2.63;;;2.27;;
12429;SDS011;6279;42.192;24.326;2023-03-12T21:56:04;2.83;;;2.30;;
12429;SDS011;6279;42.192;24.326;2023-03-12T21:58:31;3.30;;;2.70;;
12429;SDS011;6279;42.192;24.326;2023-03-12T22:03:36;3.47;;;2.70;;
12429;SDS011;6279;42.192;24.326;2023-03-12T22:06:03;4.10;;;3.00;;
12429;SDS011;6279;42.192;24.326;2023-03-12T22:08:29;3.40;;;2.90;;
12429;SDS011;6279;42.192;24.326;2023-03-12T22:10:55;4.13;;;3.23;;
12429;SDS011;6279;42.192;24.326;2023-03-12T22:13:20;5.10;;;3.17;;
12429;SDS011;6279;42.192;24.326;2023-03-12T22:15:51;3.63;;;2.90;;
12429;SDS011;6279;42.192;24.326;2023-03-12T22:18:21;5.83;;;3.90;;
12429;SDS011;6279;42.192;24.326;2023-03-12T22:20:57;4.90;;;3.80;;
12429;SDS011;6279;42.192;24.326;2023-03-12T22:23:25;4.67;;;3.50;;
12429;SDS011;6279;42.192;24.326;2023-03-12T22:25:51;5.67;;;3.50;;
12429;SDS011;6279;42.192;24.326;2023-03-12T22:28:16;6.07;;;3.23;;
12429;SDS011;6279;42.192;24.326;2023-03-12T22:30:43;5.10;;;3.00;;
12429;SDS011;6279;42.192;24.326;2023-03-12T22:33:09;3.57;;;2.83;;
12429;SDS011;6279;42.192;24.326;2023-03-12T22:35:41;4.37;;;2.83;;
12429;SDS011;6279;42.192;24.326;2023-03-12T22:38:10;3.50;;;2.80;;
12429;SDS011;6279;42.192;24.326;2023-03-12T22:40:35;5.37;;;2.50;;
12429;SDS011;6279;42.192;24.326;2023-03-12T22:43:01;3.40;;;2.67;;
12429;SDS011;6279;42.192;24.326;2023-03-12T22:45:26;2.97;;;2.47;;
12429;SDS011;6279;42.192;24.326;2023-03-12T22:47:52;2.73;;;2.30;;
12429;SDS011;6279;42.192;24.326;2023-03-12T22:50:17;3.70;;;2.70;;
12429;SDS011;6279;42.192;24.326;2023-03-12T22:52:42;3.20;;;2.90;;
12429;SDS011;6279;42.192;24.326;2023-03-12T22:55:08;3.70;;;2.20;;
12429;SDS011;6279;42.192;24.326;2023-03-12T22:57:34;2.80;;;2.30;;
12429;SDS011;6279;42.192;24.326;2023-03-12T23:00:00;4.20;;;2.23;;
12429;SDS011;6279;42.192;24.326;2023-03-12T23:02:26;2.97;;;2.60;;
12429;SDS011;6279;42.192;24.326;2023-03-12T23:04:51;2.97;;;2.43;;
12429;SDS011;6279;42.192;24.326;2023-03-12T23:07:17;2.67;;;2.30;;
12429;SDS011;6279;42.192;24.326;2023-03-12T23:09:42;3.50;;;2.40;;
12429;SDS011;6279;42.192;24.326;2023-03-12T23:12:07;3.23;;;2.50;;
12429;SDS011;6279;42.192;24.326;2023-03-12T23:14:33;3.27;;;2.57;;
12429;SDS011;6279;42.192;24.326;2023-03-12T23:16:59;3.20;;;2.60;;
12429;SDS011;6279;42.192;24.326;2023-03-12T23:19:25;2.90;;;2.30;;
12429;SDS011;6279;42.192;24.326;2023-03-12T23:21:51;2.87;;;2.33;;
12429;SDS011;6279;42.192;24.326;2023-03-12T23:24:16;3.27;;;2.57;;
12429;SDS011;6279;42.192;24.326;2023-03-12T23:26:42;3.97;;;2.40;;
12429;SDS011;6279;42.192;24.326;2023-03-12T23:29:09;3.63;;;2.60;;
12429;SDS011;6279;42.192;24.326;2023-03-12T23:31:36;2.93;;;2.60;;
12429;SDS011;6279;42.192;24.326;2023-03-12T23:34:01;4.17;;;3.13;;
12429;SDS011;6279;42.192;24.326;2023-03-12T23:36:27;3.63;;;2.63;;
12429;SDS011;6279;42.192;24.326;2023-03-12T23:38:52;5.93;;;3.20;;
12429;SDS011;6279;42.192;24.326;2023-03-12T23:41:22;3.00;;;2.70;;
12429;SDS011;6279;42.192;24.326;2023-03-12T23:43:54;3.93;;;2.67;;
12429;SDS011;6279;42.192;24.326;2023-03-12T23:46:20;3.33;;;2.50;;
12429;SDS011;6279;42.192;24.326;2023-03-12T23:48:46;3.63;;;2.63;;
12429;SDS011;6279;42.192;24.326;2023-03-12T23:51:16;3.03;;;2.70;;
12429;SDS011;6279;42.192;24.326;2023-03-12T23:53:47;3.13;;;2.70;;
12429;SDS011;6279;42.192;24.326;2023-03-12T23:56:15;5.17;;;2.60;;
12429;SDS011;6279;42.192;24.326;2023-03-12T23:58:42;5.37;;;3.10;;
